createdAt,value
2018-03-28T00:02:42.452Z,88.03
2018-03-28T00:05:46.586Z,87.83
2018-03-28T00:08:50.051Z,88.43
2018-03-28T00:11:53.436Z,88.51
2018-03-28T00:14:56.780Z,88.83
2018-03-28T00:18:00.180Z,88.88
2018-03-28T00:21:03.541Z,88.74
2018-03-28T00:24:08.433Z,88.41
2018-03-28T00:27:11.797Z,88.26
2018-03-28T00:30:15.933Z,88.12
2018-03-28T00:33:19.291Z,87.88
2018-03-28T00:36:22.656Z,88.02
2018-03-28T00:39:26.022Z,87.70
2018-03-28T00:42:30.214Z,88.05
2018-03-28T00:45:34.430Z,87.57
2018-03-28T00:48:37.790Z,87.67
2018-03-28T00:51:41.136Z,87.96
2018-03-28T00:54:44.505Z,87.89
2018-03-28T00:57:47.863Z,88.03
2018-03-28T01:00:51.232Z,87.58
2018-03-28T01:03:55.487Z,87.83
2018-03-28T01:06:58.805Z,87.86
2018-03-28T01:10:02.326Z,87.86
2018-03-28T01:13:05.687Z,88.10
2018-03-28T01:16:09.151Z,88.14
2018-03-28T01:19:12.519Z,88.10
2018-03-28T01:22:15.873Z,87.92
2018-03-28T01:25:19.300Z,88.19
2018-03-28T01:28:22.700Z,88.14
2018-03-28T01:31:26.055Z,88.18
2018-03-28T01:34:30.159Z,88.25
2018-03-28T01:37:33.500Z,88.80
2018-03-28T01:40:36.863Z,88.17
2018-03-28T01:43:40.221Z,88.46
2018-03-28T01:46:43.581Z,88.27
2018-03-28T01:49:47.711Z,87.94
2018-03-28T01:52:51.048Z,88.12
2018-03-28T01:55:54.612Z,88.29
2018-03-28T01:58:57.962Z,88.48
2018-03-28T02:02:02.235Z,88.65
2018-03-28T02:05:05.574Z,88.45
2018-03-28T02:08:08.931Z,88.52
2018-03-28T02:11:12.310Z,88.35
2018-03-28T02:14:16.427Z,87.80
2018-03-28T02:17:20.548Z,87.81
2018-03-28T02:20:24.657Z,88.10
2018-03-28T02:23:28.781Z,88.15
2018-03-28T02:26:32.901Z,88.07
2018-03-28T02:29:36.281Z,88.36
2018-03-28T02:32:40.414Z,87.98
2018-03-28T02:35:43.782Z,88.26
2018-03-28T02:38:47.897Z,88.19
2018-03-28T02:41:51.251Z,88.19
2018-03-28T02:44:54.620Z,88.08
2018-03-28T02:47:57.990Z,88.25
2018-03-28T02:51:01.337Z,88.15
2018-03-28T02:54:04.695Z,87.97
2018-03-28T02:57:08.143Z,87.86
2018-03-28T03:00:11.490Z,88.15
2018-03-28T03:03:15.696Z,88.67
2018-03-28T03:06:20.582Z,88.38
2018-03-28T03:09:23.942Z,87.91
2018-03-28T03:12:28.117Z,88.11
2018-03-28T03:15:31.473Z,88.14
2018-03-28T03:18:35.593Z,88.03
2018-03-28T03:21:39.810Z,88.03
2018-03-28T03:24:44.126Z,88.02
2018-03-28T03:27:47.480Z,87.88
2018-03-28T03:30:50.833Z,87.44
2018-03-28T03:33:54.948Z,87.92
2018-03-28T03:36:59.068Z,87.73
2018-03-28T03:40:03.208Z,87.63
2018-03-28T03:43:06.577Z,87.71
2018-03-28T03:46:10.716Z,87.69
2018-03-28T03:49:14.069Z,87.77
2018-03-28T03:52:17.434Z,87.44
2018-03-28T03:55:20.811Z,87.72
2018-03-28T03:58:24.923Z,87.80
2018-03-28T04:01:29.049Z,87.35
2018-03-28T04:04:32.442Z,87.30
2018-03-28T04:07:35.791Z,86.86
2018-03-28T04:10:39.159Z,86.93
2018-03-28T04:13:42.504Z,86.73
2018-03-28T04:16:47.365Z,87.36
2018-03-28T04:19:51.507Z,86.72
2018-03-28T04:22:54.916Z,87.04
2018-03-28T04:25:58.558Z,86.86
2018-03-28T04:29:03.503Z,87.24
2018-03-28T04:32:08.383Z,86.59
2018-03-28T04:35:11.737Z,86.35
2018-03-28T04:38:15.086Z,86.89
2018-03-28T04:41:18.433Z,87.15
2018-03-28T04:44:21.817Z,87.07
2018-03-28T04:47:25.173Z,87.18
2018-03-28T04:50:28.517Z,86.97
2018-03-28T04:53:33.383Z,87.25
2018-03-28T04:56:37.603Z,87.25
2018-03-28T04:59:41.727Z,87.43
2018-03-28T05:02:45.083Z,87.21
2018-03-28T05:05:49.242Z,87.37
2018-03-28T05:08:53.386Z,87.06
2018-03-28T05:11:56.748Z,87.12
2018-03-28T05:15:00.874Z,87.46
2018-03-28T05:18:04.287Z,87.59
2018-03-28T05:21:07.643Z,87.41
2018-03-28T05:24:11.767Z,87.62
2018-03-28T05:27:15.921Z,87.41
2018-03-28T05:30:19.291Z,87.11
2018-03-28T05:33:23.409Z,87.32
2018-03-28T05:36:27.534Z,86.96
2018-03-28T05:39:31.656Z,87.20
2018-03-28T05:42:35.009Z,86.95
2018-03-28T05:45:38.462Z,87.13
2018-03-28T05:48:41.833Z,86.77
2018-03-28T05:51:45.211Z,86.82
2018-03-28T05:54:49.320Z,87.11
2018-03-28T05:57:52.677Z,87.04
2018-03-28T06:00:56.070Z,87.02
2018-03-28T06:04:00.193Z,87.21
2018-03-28T06:07:03.542Z,86.44
2018-03-28T06:10:08.434Z,86.54
2018-03-28T06:13:11.808Z,86.56
2018-03-28T06:16:15.953Z,86.67
2018-03-28T06:19:19.330Z,87.10
2018-03-28T06:22:23.457Z,87.27
2018-03-28T06:25:26.955Z,86.93
2018-03-28T06:28:30.312Z,86.59
2018-03-28T06:31:33.683Z,86.79
2018-03-28T06:34:37.051Z,86.74
2018-03-28T06:37:40.416Z,87.10
2018-03-28T06:40:45.302Z,86.69
2018-03-28T06:43:48.766Z,86.91
2018-03-28T06:46:52.959Z,87.27
2018-03-28T06:49:57.099Z,86.73
2018-03-28T06:53:00.444Z,86.60
2018-03-28T06:56:03.814Z,85.89
2018-03-28T06:59:07.195Z,86.38
2018-03-28T07:02:10.556Z,85.89
2018-03-28T07:05:13.897Z,85.43
2018-03-28T07:08:18.015Z,85.52
2018-03-28T07:11:22.252Z,85.68
2018-03-28T07:14:25.630Z,85.18
2018-03-28T07:17:29.768Z,84.97
2018-03-28T07:20:33.193Z,85.36
2018-03-28T07:23:36.648Z,85.19
2018-03-28T07:26:40.778Z,84.62
2018-03-28T07:29:44.902Z,84.77
2018-03-28T07:32:48.323Z,84.79
2018-03-28T07:35:51.754Z,84.45
2018-03-28T07:38:55.104Z,85.02
2018-03-28T07:41:58.443Z,85.30
2018-03-28T07:45:01.821Z,85.60
2018-03-28T07:48:05.184Z,85.25
2018-03-28T07:51:09.337Z,84.93
2018-03-28T07:54:12.701Z,85.19
2018-03-28T07:57:16.845Z,84.65
2018-03-28T08:00:20.231Z,84.12
2018-03-28T08:03:23.594Z,83.59
2018-03-28T08:06:28.456Z,83.86
2018-03-28T08:09:32.762Z,83.87
2018-03-28T08:12:36.098Z,83.39
2018-03-28T08:15:39.481Z,83.03
2018-03-28T08:18:43.610Z,81.90
2018-03-28T08:21:47.124Z,81.97
2018-03-28T08:24:50.486Z,82.20
2018-03-28T08:27:54.632Z,81.65
2018-03-28T08:30:57.980Z,81.83
2018-03-28T08:34:02.126Z,81.82
2018-03-28T08:37:06.255Z,81.86
2018-03-28T08:40:09.581Z,81.92
2018-03-28T08:43:12.942Z,81.50
2018-03-28T08:46:17.070Z,81.34
2018-03-28T08:49:20.474Z,81.02
2018-03-28T08:52:23.836Z,80.45
2018-03-28T08:55:27.205Z,80.51
2018-03-28T08:58:30.586Z,81.20
2018-03-28T09:01:33.939Z,80.79
2018-03-28T09:04:37.311Z,80.52
2018-03-28T09:07:40.671Z,80.25
2018-03-28T09:10:44.043Z,80.36
2018-03-28T09:13:48.209Z,80.29
2018-03-28T09:16:51.582Z,80.56
2018-03-28T09:19:54.936Z,80.53
2018-03-28T09:22:59.090Z,80.83
2018-03-28T09:26:02.478Z,81.27
2018-03-28T09:29:06.911Z,81.32
2018-03-28T09:32:10.358Z,80.68
2018-03-28T09:35:13.817Z,80.35
2018-03-28T09:38:17.172Z,80.44
2018-03-28T09:41:20.524Z,80.18
2018-03-28T09:44:23.902Z,79.65
2018-03-28T09:47:28.059Z,79.83
2018-03-28T09:50:31.431Z,79.48
2018-03-28T09:53:34.805Z,79.38
2018-03-28T09:56:38.179Z,79.24
2018-03-28T09:59:42.346Z,78.71
2018-03-28T10:02:45.723Z,78.68
2018-03-28T10:05:49.842Z,78.55
2018-03-28T10:08:54.079Z,78.59
2018-03-28T10:11:57.438Z,78.50
2018-03-28T10:15:01.568Z,78.74
2018-03-28T10:18:05.020Z,78.26
2018-03-28T10:21:08.388Z,78.83
2018-03-28T10:24:12.720Z,78.77
2018-03-28T10:27:16.079Z,78.69
2018-03-28T10:30:20.209Z,78.80
2018-03-28T10:33:24.348Z,78.79
2018-03-28T10:36:27.730Z,78.98
2018-03-28T10:39:31.847Z,79.25
2018-03-28T10:42:35.970Z,79.42
2018-03-28T10:45:40.112Z,79.21
2018-03-28T10:48:43.485Z,79.42
2018-03-28T10:51:47.600Z,79.36
2018-03-28T10:54:51.734Z,79.16
2018-03-28T10:57:55.086Z,78.98
2018-03-28T11:00:59.227Z,78.23
2018-03-28T11:04:03.372Z,77.98
2018-03-28T11:07:06.734Z,77.95
2018-03-28T11:10:11.594Z,77.35
2018-03-28T11:13:14.962Z,76.70
2018-03-28T11:16:18.392Z,77.02
2018-03-28T11:19:21.766Z,76.06
2018-03-28T11:22:25.135Z,76.05
2018-03-28T11:25:29.571Z,75.06
2018-03-28T11:38:23.020Z,75.96
2018-03-28T11:41:26.413Z,75.38
2018-03-28T11:44:29.796Z,75.46
2018-03-28T11:47:33.160Z,74.32
2018-03-28T11:50:36.529Z,74.51
2018-03-28T11:53:40.654Z,74.73
2018-03-28T11:56:44.806Z,74.87
2018-03-28T11:59:48.196Z,74.72
2018-03-28T12:02:51.578Z,74.58
2018-03-28T12:05:55.097Z,74.66
2018-03-28T12:08:58.480Z,74.88
2018-03-28T12:12:01.939Z,75.35
2018-03-28T12:15:05.306Z,75.25
2018-03-28T12:18:08.675Z,75.17
2018-03-28T12:21:12.809Z,75.18
2018-03-28T12:24:16.220Z,73.96
2018-03-28T12:27:19.682Z,73.55
2018-03-28T12:30:23.828Z,72.41
2018-03-28T12:33:27.242Z,72.80
2018-03-28T12:36:30.702Z,72.01
2018-03-28T12:39:34.854Z,72.57
2018-03-28T12:42:38.230Z,73.98
2018-03-28T12:45:42.381Z,74.50
2018-03-28T12:48:45.785Z,75.18
2018-03-28T12:51:49.185Z,74.81
2018-03-28T12:54:52.668Z,75.22
2018-03-28T12:57:56.032Z,75.73
2018-03-28T13:01:00.305Z,75.96
2018-03-28T13:04:03.686Z,75.61
2018-03-28T13:07:07.234Z,75.55
2018-03-28T13:10:10.889Z,75.07
2018-03-28T13:13:14.278Z,74.77
2018-03-28T13:16:17.671Z,74.36
2018-03-28T13:19:21.796Z,72.79
2018-03-28T13:22:25.408Z,73.53
2018-03-28T13:25:28.871Z,73.81
2018-03-28T13:28:32.251Z,74.15
2018-03-28T13:31:35.632Z,74.49
2018-03-28T13:34:38.972Z,74.50
2018-03-28T13:37:42.723Z,73.65
2018-03-28T13:40:46.097Z,73.62
2018-03-28T13:43:50.207Z,73.87
2018-03-28T13:46:54.432Z,73.45
2018-03-28T13:49:58.583Z,73.57
2018-03-28T13:53:01.957Z,73.55
2018-03-28T13:56:05.323Z,73.72
2018-03-28T13:59:09.012Z,74.07
2018-03-28T14:02:12.411Z,73.67
2018-03-28T14:05:15.766Z,73.83
2018-03-28T14:08:19.197Z,74.07
2018-03-28T14:11:22.571Z,74.40
2018-03-28T14:14:26.074Z,74.74
2018-03-28T14:17:29.533Z,74.85
2018-03-28T14:20:32.993Z,74.13
2018-03-28T14:23:36.361Z,74.08
2018-03-28T14:26:39.766Z,74.68
2018-03-28T14:29:43.142Z,74.08
2018-03-28T14:32:47.507Z,73.89
2018-03-28T14:35:50.998Z,74.43
2018-03-28T14:38:54.412Z,74.18
2018-03-28T14:41:58.763Z,74.94
2018-03-28T14:45:02.137Z,75.79
2018-03-28T14:48:05.506Z,75.84
2018-03-28T14:51:08.890Z,75.45
2018-03-28T14:54:13.023Z,76.30
2018-03-28T14:57:16.421Z,76.71
2018-03-28T15:00:20.772Z,76.13
2018-03-28T15:03:24.124Z,76.07
2018-03-28T15:06:27.494Z,76.11
2018-03-28T15:09:31.629Z,75.78
2018-03-28T15:12:35.102Z,76.39
2018-03-28T15:15:38.502Z,76.46
2018-03-28T15:18:41.857Z,76.47
2018-03-28T15:21:45.224Z,76.90
2018-03-28T15:24:49.359Z,76.55
2018-03-28T15:27:53.665Z,77.06
2018-03-28T15:30:57.083Z,76.82
2018-03-28T15:34:01.267Z,76.59
2018-03-28T15:37:04.739Z,76.55
2018-03-28T15:40:08.142Z,76.43
2018-03-28T15:43:11.501Z,76.56
2018-03-28T15:46:15.667Z,76.65
2018-03-28T15:49:19.048Z,76.67
2018-03-28T15:52:22.500Z,76.77
2018-03-28T15:55:27.676Z,76.37
2018-03-28T15:58:31.129Z,76.26
2018-03-28T16:01:36.223Z,76.09
2018-03-28T16:04:39.605Z,76.09
2018-03-28T16:07:43.934Z,76.30
2018-03-28T16:10:47.353Z,76.33
2018-03-28T16:13:50.814Z,76.48
2018-03-28T16:16:55.034Z,76.97
2018-03-28T16:19:59.206Z,76.75
2018-03-28T16:23:02.586Z,77.27
2018-03-28T16:26:06.004Z,76.76
2018-03-28T16:29:09.449Z,77.05
2018-03-28T16:32:13.603Z,76.20
2018-03-28T16:35:17.010Z,76.37
2018-03-28T16:38:20.377Z,76.75
2018-03-28T16:41:24.589Z,76.74
2018-03-28T16:44:28.039Z,77.01
2018-03-28T16:47:31.612Z,76.89
2018-03-28T16:50:35.147Z,77.36
2018-03-28T16:53:38.525Z,77.63
2018-03-28T16:56:41.890Z,77.80
2018-03-28T16:59:46.032Z,78.41
2018-03-28T17:02:49.435Z,78.14
2018-03-28T17:05:52.831Z,78.29
2018-03-28T17:08:56.204Z,78.59
2018-03-28T17:12:00.439Z,78.35
2018-03-28T17:15:04.557Z,78.53
2018-03-28T17:18:08.734Z,79.06
2018-03-28T17:21:12.305Z,79.35
2018-03-28T17:24:15.679Z,79.72
2018-03-28T17:27:20.113Z,79.21
2018-03-28T17:30:23.508Z,79.29
2018-03-28T17:33:26.871Z,79.08
2018-03-28T17:36:31.147Z,79.18
2018-03-28T17:39:34.543Z,78.85
2018-03-28T17:42:37.933Z,78.63
2018-03-28T17:45:41.377Z,78.67
2018-03-28T17:48:44.823Z,78.82
2018-03-28T17:51:48.958Z,79.04
2018-03-28T17:54:52.342Z,79.49
2018-03-28T17:57:56.537Z,79.28
2018-03-28T18:00:59.912Z,79.10
2018-03-28T18:04:03.312Z,78.75
2018-03-28T18:07:06.703Z,79.07
2018-03-28T18:10:10.079Z,80.51
2018-03-28T18:13:13.457Z,80.51
2018-03-28T18:16:17.014Z,80.62
2018-03-28T18:19:20.380Z,81.51
2018-03-28T18:22:23.776Z,81.29
2018-03-28T18:25:27.171Z,81.62
2018-03-28T18:28:30.556Z,81.83
2018-03-28T18:31:34.689Z,82.05
2018-03-28T18:34:38.100Z,83.15
2018-03-28T18:37:41.553Z,83.94
2018-03-28T18:40:44.959Z,84.13
2018-03-28T18:43:49.107Z,85.52
2018-03-28T18:46:52.506Z,86.52
2018-03-28T18:49:55.922Z,86.62
2018-03-28T18:52:59.446Z,86.93
2018-03-28T18:56:02.859Z,87.23
2018-03-28T18:59:06.245Z,88.08
2018-03-28T19:02:09.979Z,88.69
2018-03-28T19:05:13.365Z,89.13
2018-03-28T19:08:17.719Z,88.92
2018-03-28T19:11:22.078Z,89.43
2018-03-28T19:14:25.469Z,89.92
2018-03-28T19:17:29.880Z,89.86
2018-03-28T19:20:33.399Z,90.11
2018-03-28T19:23:36.822Z,90.75
2018-03-28T19:26:40.271Z,91.19
2018-03-28T19:29:43.738Z,91.13
2018-03-28T19:32:48.673Z,91.17
2018-03-28T19:35:52.998Z,91.63
2018-03-28T19:38:56.410Z,91.65
2018-03-28T19:42:00.593Z,91.81
2018-03-28T19:45:04.345Z,91.53
2018-03-28T19:48:08.670Z,91.62
2018-03-28T19:51:12.390Z,91.73
2018-03-28T19:54:15.966Z,91.86
2018-03-28T19:57:19.394Z,92.09
2018-03-28T20:00:22.902Z,92.25
2018-03-28T20:03:26.415Z,92.45
2018-03-28T20:06:29.840Z,92.89
2018-03-28T20:09:33.344Z,93.34
2018-03-28T20:12:36.730Z,93.12
2018-03-28T20:15:40.142Z,92.79
2018-03-28T20:18:43.543Z,92.99
2018-03-28T20:21:46.921Z,93.16
2018-03-28T20:24:50.302Z,93.27
2018-03-28T20:27:53.671Z,93.56
2018-03-28T20:30:57.051Z,93.50
2018-03-28T20:34:01.222Z,93.49
2018-03-28T20:37:04.715Z,93.53
2018-03-28T20:40:08.097Z,93.65
2018-03-28T20:43:12.463Z,93.65
2018-03-28T20:46:16.242Z,93.48
2018-03-28T20:49:20.093Z,93.60
2018-03-28T20:52:23.618Z,93.80
2018-03-28T20:55:27.094Z,93.63
2018-03-28T20:58:30.470Z,93.37
2018-03-28T21:01:33.878Z,93.63
2018-03-28T21:04:37.265Z,93.73
2018-03-28T21:07:44.642Z,93.97
2018-03-28T21:10:48.782Z,94.02
2018-03-28T21:13:52.136Z,93.89
2018-03-28T21:16:56.275Z,94.19
2018-03-28T21:20:00.408Z,93.71
2018-03-28T21:23:03.777Z,93.96
2018-03-28T21:26:07.966Z,94.13
2018-03-28T21:29:11.332Z,94.02
2018-03-28T21:32:14.694Z,94.01
2018-03-28T21:35:18.836Z,93.95
2018-03-28T21:38:22.238Z,93.76
2018-03-28T21:41:25.613Z,93.55
2018-03-28T21:44:29.768Z,93.72
2018-03-28T21:47:33.114Z,93.61
2018-03-28T21:50:37.245Z,93.97
2018-03-28T21:53:41.346Z,94.05
2018-03-28T21:56:45.568Z,93.93
2018-03-28T21:59:48.915Z,93.92
2018-03-28T22:02:52.286Z,93.96
2018-03-28T22:05:56.406Z,93.87
2018-03-28T22:08:59.853Z,93.80
2018-03-28T22:12:03.293Z,93.80
2018-03-28T22:15:07.602Z,93.68
2018-03-28T22:18:10.968Z,93.71
2018-03-28T22:21:14.330Z,93.95
2018-03-28T22:24:17.694Z,93.64
2018-03-28T22:27:21.051Z,93.96
2018-03-28T22:30:24.445Z,93.72
2018-03-28T22:33:27.792Z,93.39
2018-03-28T22:36:31.134Z,93.46
2018-03-28T22:39:34.501Z,93.36
2018-03-28T22:42:38.612Z,93.46
2018-03-28T22:45:42.731Z,93.32
2018-03-28T22:48:46.859Z,93.56
2018-03-28T22:51:51.096Z,93.46
2018-03-28T22:54:54.495Z,93.52
2018-03-28T22:57:57.871Z,93.36
2018-03-28T23:01:02.025Z,93.06
2018-03-28T23:04:05.394Z,92.89
2018-03-28T23:07:09.509Z,93.07
2018-03-28T23:10:13.813Z,92.34
2018-03-28T23:13:18.678Z,92.30
2018-03-28T23:16:22.042Z,92.12
2018-03-28T23:19:25.531Z,92.07
2018-03-28T23:22:40.645Z,91.97
2018-03-28T23:25:44.782Z,91.96
2018-03-28T23:28:48.141Z,92.38
2018-03-28T23:31:51.496Z,92.81
2018-03-28T23:34:54.862Z,92.22
2018-03-28T23:37:58.979Z,92.38
2018-03-28T23:41:03.106Z,92.32
2018-03-28T23:44:06.456Z,92.30
2018-03-28T23:47:09.813Z,92.84
2018-03-28T23:50:13.173Z,92.47
2018-03-28T23:53:17.304Z,92.52
2018-03-28T23:56:21.440Z,92.60
2018-03-28T23:59:24.930Z,92.74
